Time;durP1;ratioP1;P1;durP2;ratioP2;P2;SDS_P1;SDS_P2;PMS_P1;PMS_P2;Temp;Humidity;BMP_temperature;BMP_pressure;BME280_temperature;BME280_humidity;BME280_pressure;Samples;Min_cycle;Max_cycle;Signal;HPM_P1;HPM_P2
2021/12/22 00:01:16;;;;;;;28.60;16.75;;;-1.40;99.90;;;;;;5069112;28;20067;-72
2021/12/22 00:03:46;;;;;;;24.73;15.00;;;-1.40;99.90;;;;;;5068429;28;20032;-73
2021/12/22 00:06:14;;;;;;;27.13;17.17;;;-1.40;99.90;;;;;;5065423;28;20530;-72
2021/12/22 00:08:39;;;;;;;23.90;16.02;;;-1.40;99.90;;;;;;5061252;28;20062;-72
2021/12/22 00:11:05;;;;;;;24.85;14.25;;;-1.50;99.90;;;;;;5062264;28;20040;-72
2021/12/22 00:13:30;;;;;;;29.25;14.68;;;-1.40;99.90;;;;;;5068357;28;20044;-72
2021/12/22 00:15:56;;;;;;;25.52;13.95;;;-1.40;99.90;;;;;;5066812;28;20048;-73
2021/12/22 00:18:22;;;;;;;23.02;14.13;;;-1.40;99.90;;;;;;5066974;28;20051;-73
2021/12/22 00:20:47;;;;;;;21.73;13.73;;;-1.40;99.90;;;;;;5065775;28;20377;-73
2021/12/22 00:23:13;;;;;;;24.45;14.38;;;-1.30;99.90;;;;;;5067525;28;20173;-73
2021/12/22 00:25:39;;;;;;;17.80;12.25;;;-1.40;99.90;;;;;;5067720;28;20101;-73
2021/12/22 00:28:05;;;;;;;28.27;14.23;;;-1.40;99.90;;;;;;5066521;28;20433;-72
2021/12/22 00:30:30;;;;;;;24.85;13.07;;;-1.50;99.90;;;;;;5067362;28;20048;-72
2021/12/22 00:33:01;;;;;;;25.83;13.77;;;-1.50;99.90;;;;;;5067269;28;20487;-73
2021/12/22 00:35:37;;;;;;;24.85;14.00;;;-1.50;99.90;;;;;;5068055;28;20041;-72
2021/12/22 00:38:04;;;;;;;23.25;13.40;;;-1.50;99.90;;;;;;5066671;28;20590;-72
2021/12/22 00:40:29;;;;;;;27.80;15.18;;;-1.60;99.90;;;;;;5066187;28;20105;-73
2021/12/22 00:42:55;;;;;;;24.33;15.15;;;-1.60;99.90;;;;;;5065105;28;20403;-72
2021/12/22 00:45:24;;;;;;;24.40;12.80;;;-1.60;99.90;;;;;;5067299;28;20041;-72
2021/12/22 00:47:49;;;;;;;22.33;15.02;;;-1.60;99.90;;;;;;5066495;28;20510;-72
2021/12/22 00:50:16;;;;;;;18.42;11.73;;;-1.60;99.90;;;;;;5066265;28;20056;-72
2021/12/22 00:52:44;;;;;;;20.63;13.25;;;-1.60;99.90;;;;;;5068552;28;20044;-72
2021/12/22 00:55:13;;;;;;;21.65;13.32;;;-1.60;99.90;;;;;;5053218;28;20048;-73
2021/12/22 00:57:39;;;;;;;28.88;14.38;;;-1.60;99.90;;;;;;5064987;28;20068;-72
2021/12/22 01:00:07;;;;;;;22.77;12.68;;;-1.60;99.90;;;;;;5065855;28;20095;-73
2021/12/22 01:02:32;;;;;;;21.45;11.70;;;-1.60;99.90;;;;;;5055501;28;20044;-72
2021/12/22 01:04:58;;;;;;;22.05;13.95;;;-1.60;99.90;;;;;;5064378;28;20047;-73
2021/12/22 01:07:24;;;;;;;21.58;13.13;;;-1.60;99.90;;;;;;5069625;28;20044;-72
2021/12/22 01:09:50;;;;;;;22.10;12.80;;;-1.70;99.90;;;;;;5070137;28;20422;-72
2021/12/22 01:12:15;;;;;;;25.15;14.88;;;-1.70;99.90;;;;;;5064462;28;20403;-72
2021/12/22 01:14:42;;;;;;;21.92;13.48;;;-1.50;99.90;;;;;;5070968;28;20056;-72
2021/12/22 01:17:10;;;;;;;23.30;13.52;;;-1.70;99.90;;;;;;5070042;28;20429;-72
2021/12/22 01:20:03;;;;;;;18.27;11.48;;;-1.80;99.90;;;;;;5070859;28;20036;-72
2021/12/22 01:22:30;;;;;;;23.20;13.82;;;-1.80;99.90;;;;;;5070146;28;20428;-72
2021/12/22 01:25:04;;;;;;;19.90;12.00;;;-1.70;99.90;;;;;;5069862;28;20056;-72
2021/12/22 01:27:37;;;;;;;23.10;13.47;;;-1.80;99.90;;;;;;5070520;28;20036;-72
2021/12/22 01:30:15;;;;;;;21.40;12.07;;;-1.80;99.90;;;;;;5069856;28;20805;-73
2021/12/22 01:32:42;;;;;;;18.70;11.25;;;-1.80;99.90;;;;;;5069956;28;20040;-73
2021/12/22 01:35:11;;;;;;;22.40;13.98;;;-1.90;99.90;;;;;;5070283;28;20045;-73
2021/12/22 01:37:36;;;;;;;22.30;12.10;;;-1.80;99.90;;;;;;5070403;28;20488;-72
2021/12/22 01:40:03;;;;;;;18.33;11.38;;;-1.90;99.90;;;;;;5068876;28;20036;-72
2021/12/22 01:42:30;;;;;;;20.85;11.70;;;-1.90;99.90;;;;;;5067457;28;20040;-72
2021/12/22 01:50:28;;;;;;;26.17;14.07;;;-1.80;99.90;;;;;;5087198;28;20099;-73
2021/12/22 01:52:53;;;;;;;23.90;13.65;;;-1.80;99.90;;;;;;5069933;28;20134;-73
2021/12/22 01:55:30;;;;;;;16.77;10.48;;;-1.90;99.90;;;;;;5069927;28;20066;-72
2021/12/22 01:58:00;;;;;;;19.38;11.18;;;-1.90;99.90;;;;;;5066691;28;20052;-72
2021/12/22 02:00:26;;;;;;;20.83;11.38;;;-1.90;99.90;;;;;;5070096;28;20040;-73
2021/12/22 02:02:52;;;;;;;20.33;12.48;;;-1.90;99.90;;;;;;5066030;28;20132;-73
2021/12/22 02:05:18;;;;;;;27.70;13.35;;;-1.90;99.90;;;;;;5065812;28;20153;-73
2021/12/22 02:07:43;;;;;;;22.30;12.93;;;-1.90;99.90;;;;;;5066930;28;20061;-72
2021/12/22 02:12:40;;;;;;;21.15;12.32;;;-1.90;99.90;;;;;;5064855;28;20052;-73
2021/12/22 02:15:06;;;;;;;20.35;11.63;;;-2.00;99.90;;;;;;5068559;28;20090;-72
2021/12/22 02:17:34;;;;;;;20.55;11.52;;;-2.00;99.90;;;;;;5065769;28;20051;-73
2021/12/22 02:20:00;;;;;;;19.35;10.63;;;-2.00;99.90;;;;;;5067612;28;20044;-72
2021/12/22 02:22:27;;;;;;;22.35;12.07;;;-2.00;99.90;;;;;;5070308;28;20093;-73
2021/12/22 02:24:57;;;;;;;22.17;11.73;;;-1.90;99.90;;;;;;5084205;28;20048;-72
2021/12/22 02:27:30;;;;;;;19.67;12.15;;;-2.00;99.90;;;;;;5070378;28;20064;-72
2021/12/22 02:30:00;;;;;;;24.85;13.05;;;-2.00;99.90;;;;;;5068329;28;20537;-73
2021/12/22 02:34:53;;;;;;;18.88;11.80;;;-2.00;99.90;;;;;;5069512;28;20098;-73
2021/12/22 02:37:24;;;;;;;25.63;13.55;;;-2.10;99.90;;;;;;5069076;28;20062;-70
2021/12/22 02:39:58;;;;;;;22.40;12.80;;;-1.60;99.90;;;;;;5069318;28;20094;-73
2021/12/22 02:42:28;;;;;;;19.08;11.50;;;-2.10;99.90;;;;;;5068975;28;20494;-72
2021/12/22 02:44:54;;;;;;;24.20;12.52;;;-2.10;99.90;;;;;;5069079;28;20124;-72
2021/12/22 02:47:23;;;;;;;20.15;11.57;;;-2.10;99.90;;;;;;5065927;28;20411;-73
2021/12/22 02:49:49;;;;;;;22.63;14.00;;;-2.10;99.90;;;;;;5067347;28;20037;-72
2021/12/22 02:52:16;;;;;;;22.15;12.40;;;-2.10;99.90;;;;;;5090525;28;20415;-73
2021/12/22 02:54:50;;;;;;;19.00;11.18;;;-2.10;99.90;;;;;;5072948;28;20131;-72
2021/12/22 02:57:26;;;;;;;20.38;11.68;;;-2.10;99.90;;;;;;5066654;28;20043;-73
2021/12/22 03:00:25;;;;;;;21.80;12.68;;;-2.10;99.90;;;;;;5068993;28;20054;-72
2021/12/22 03:05:21;;;;;;;25.58;12.13;;;-2.10;99.90;;;;;;5089480;28;20048;-72
2021/12/22 03:07:48;;;;;;;20.58;12.02;;;-2.00;99.90;;;;;;5072792;28;20048;-73
2021/12/22 03:10:17;;;;;;;17.95;10.27;;;-2.10;99.90;;;;;;5071107;28;20055;-72
2021/12/22 03:12:44;;;;;;;19.55;12.15;;;-2.20;99.90;;;;;;5066577;28;20052;-72
2021/12/22 03:15:10;;;;;;;17.40;10.55;;;-2.20;99.90;;;;;;5072479;28;20811;-72
2021/12/22 03:17:39;;;;;;;20.17;11.45;;;-2.20;99.90;;;;;;5089975;28;20501;-72
2021/12/22 03:20:09;;;;;;;19.83;12.32;;;-2.20;99.90;;;;;;5089744;28;20048;-73
2021/12/22 03:22:37;;;;;;;23.15;11.13;;;-2.20;99.90;;;;;;5071382;28;20036;-72
2021/12/22 03:25:14;;;;;;;19.45;11.20;;;-2.20;99.90;;;;;;5070469;28;20035;-72
2021/12/22 03:27:42;;;;;;;21.08;12.10;;;-2.20;99.90;;;;;;5064644;28;20048;-72
2021/12/22 03:30:08;;;;;;;24.67;13.45;;;-2.20;99.90;;;;;;5089086;28;20047;-72
2021/12/22 03:32:34;;;;;;;22.58;12.50;;;-2.30;99.90;;;;;;5088976;28;20094;-72
2021/12/22 03:34:59;;;;;;;23.05;12.63;;;-2.30;99.90;;;;;;5088744;28;20067;-72
2021/12/22 03:37:25;;;;;;;19.73;11.75;;;-2.10;99.90;;;;;;5090183;28;20112;-72
2021/12/22 03:39:50;;;;;;;27.60;13.27;;;-2.30;99.90;;;;;;5071387;28;20449;-72
2021/12/22 03:42:16;;;;;;;24.10;12.63;;;-2.40;99.90;;;;;;5070841;28;20044;-72
2021/12/22 03:44:42;;;;;;;23.00;12.50;;;-2.40;99.90;;;;;;5088620;28;20035;-72
2021/12/22 03:47:08;;;;;;;24.48;12.55;;;-2.40;99.90;;;;;;5070273;28;20043;-72
2021/12/22 03:49:34;;;;;;;22.05;13.10;;;-2.40;99.90;;;;;;5089347;28;20055;-72
2021/12/22 03:52:00;;;;;;;21.20;12.25;;;-2.40;99.90;;;;;;5068877;28;20052;-72
2021/12/22 03:54:26;;;;;;;22.48;12.55;;;-2.40;99.90;;;;;;5071198;28;20600;-72
2021/12/22 03:56:51;;;;;;;25.15;12.48;;;-2.40;99.90;;;;;;5071367;28;20065;-73
2021/12/22 03:59:18;;;;;;;16.80;10.57;;;-2.40;99.90;;;;;;5069681;28;20423;-72
2021/12/22 04:01:44;;;;;;;20.08;12.10;;;-2.40;99.90;;;;;;5070812;28;20040;-72
2021/12/22 04:04:14;;;;;;;22.90;12.23;;;-2.40;99.90;;;;;;5089290;28;20048;-73
2021/12/22 04:06:41;;;;;;;21.25;11.85;;;-2.40;99.90;;;;;;5070782;28;20151;-72
2021/12/22 04:09:07;;;;;;;21.05;12.45;;;-2.40;99.90;;;;;;5071229;28;20051;-72
2021/12/22 04:11:34;;;;;;;21.75;12.55;;;-2.40;99.90;;;;;;5067167;28;20040;-72
2021/12/22 04:14:00;;;;;;;21.85;12.35;;;-2.40;99.90;;;;;;5069099;28;20055;-72
2021/12/22 04:16:25;;;;;;;24.35;12.77;;;-2.30;99.90;;;;;;5088360;28;20391;-72
2021/12/22 04:18:51;;;;;;;25.90;14.30;;;-2.40;99.90;;;;;;5086611;28;20124;-72
2021/12/22 04:21:16;;;;;;;23.25;12.60;;;-2.50;99.90;;;;;;5063932;28;20064;-73
2021/12/22 04:23:42;;;;;;;21.70;12.85;;;-2.50;99.90;;;;;;5069155;28;20043;-73
2021/12/22 04:26:08;;;;;;;23.10;12.43;;;-2.50;99.90;;;;;;5071405;28;20097;-72
2021/12/22 04:28:34;;;;;;;22.20;12.75;;;-2.50;99.90;;;;;;5071003;28;20047;-72
2021/12/22 04:30:59;;;;;;;23.75;12.85;;;-2.50;99.90;;;;;;5088040;28;20521;-72
2021/12/22 04:33:25;;;;;;;19.20;11.02;;;-2.50;99.90;;;;;;5070385;28;20061;-72
2021/12/22 04:35:52;;;;;;;24.42;12.88;;;-2.60;99.90;;;;;;5070604;28;20082;-73
2021/12/22 04:38:18;;;;;;;22.13;12.75;;;-1.70;99.90;;;;;;5066686;28;20048;-73
2021/12/22 04:40:44;;;;;;;19.75;11.75;;;-2.50;99.90;;;;;;5088765;28;20503;-73
2021/12/22 04:43:10;;;;;;;24.40;13.63;;;-2.60;99.90;;;;;;5091432;28;20155;-72
2021/12/22 04:45:35;;;;;;;27.73;14.02;;;-2.60;99.90;;;;;;5075012;28;20048;-73
2021/12/22 04:48:01;;;;;;;23.92;13.02;;;-2.60;99.90;;;;;;5074889;28;20040;-72
2021/12/22 04:50:27;;;;;;;25.52;12.95;;;-2.60;99.90;;;;;;5091990;28;20453;-73
2021/12/22 04:52:59;;;;;;;28.67;13.90;;;-2.60;99.90;;;;;;5069910;28;20109;-73
2021/12/22 04:55:26;;;;;;;24.42;13.50;;;-2.70;99.90;;;;;;5075387;28;20123;-73
2021/12/22 04:57:53;;;;;;;27.50;14.18;;;-2.70;99.90;;;;;;5071776;28;20063;-73
2021/12/22 05:00:21;;;;;;;29.92;13.00;;;-2.70;99.90;;;;;;5072397;28;20081;-73
2021/12/22 05:02:47;;;;;;;32.17;13.75;;;-2.70;99.90;;;;;;5073365;28;20069;-73
2021/12/22 05:05:12;;;;;;;26.52;13.52;;;-1.40;99.90;;;;;;5092169;28;20036;-73
2021/12/22 05:07:38;;;;;;;26.45;14.45;;;-2.70;99.90;;;;;;5092880;28;20047;-73
2021/12/22 05:10:06;;;;;;;24.40;13.40;;;-2.70;99.90;;;;;;5073935;28;20040;-73
2021/12/22 05:12:31;;;;;;;22.75;13.20;;;-2.70;99.90;;;;;;5069477;28;20499;-73
2021/12/22 05:14:57;;;;;;;30.20;13.95;;;-2.80;99.90;;;;;;5091492;28;20043;-73
2021/12/22 05:17:38;;;;;;;24.20;13.05;;;-2.80;99.90;;;;;;5091002;28;20073;-73
2021/12/22 05:20:04;;;;;;;28.42;14.40;;;-2.80;99.90;;;;;;5065040;28;20040;-73
2021/12/22 05:22:30;;;;;;;26.20;14.45;;;-2.80;99.90;;;;;;5073848;28;20050;-73
2021/12/22 05:24:58;;;;;;;25.23;13.18;;;-2.80;99.90;;;;;;5089598;28;20039;-73
2021/12/22 05:27:23;;;;;;;26.45;14.18;;;-2.80;99.90;;;;;;5072829;28;20043;-73
2021/12/22 05:29:49;;;;;;;27.95;13.90;;;-2.80;99.90;;;;;;5073312;28;20040;-73
2021/12/22 05:32:14;;;;;;;25.98;13.52;;;-2.80;99.90;;;;;;5073974;28;20040;-73
2021/12/22 05:34:40;;;;;;;25.85;14.32;;;-2.80;99.90;;;;;;5071961;28;20485;-73
2021/12/22 05:37:06;;;;;;;26.00;13.73;;;-2.80;99.90;;;;;;5091579;28;20089;-73
2021/12/22 05:39:31;;;;;;;23.20;13.38;;;-3.20;99.90;;;;;;5091796;28;20044;-73
2021/12/22 05:41:57;;;;;;;22.58;12.27;;;-2.90;99.90;;;;;;5072862;28;20097;-73
2021/12/22 05:44:23;;;;;;;27.85;13.45;;;-2.90;99.90;;;;;;5070959;28;20047;-73
2021/12/22 05:46:49;;;;;;;25.67;13.88;;;-2.90;99.90;;;;;;5073295;28;20147;-73
2021/12/22 05:49:15;;;;;;;24.98;12.15;;;-2.90;99.90;;;;;;5074820;28;20044;-73
2021/12/22 05:51:40;;;;;;;28.08;14.60;;;-2.90;99.90;;;;;;5073235;28;20044;-73
2021/12/22 05:54:06;;;;;;;25.80;13.88;;;-2.90;99.90;;;;;;5072546;28;20062;-73
2021/12/22 05:56:32;;;;;;;27.50;13.70;;;-2.90;99.90;;;;;;5073230;28;20071;-72
2021/12/22 05:58:57;;;;;;;26.00;13.07;;;-2.90;99.90;;;;;;5062946;28;20047;-73
2021/12/22 06:01:23;;;;;;;25.67;13.98;;;-2.90;99.90;;;;;;5073334;28;20447;-73
2021/12/22 06:03:48;;;;;;;21.48;12.80;;;-3.00;99.90;;;;;;5071695;28;20044;-73
2021/12/22 06:06:14;;;;;;;23.20;13.85;;;-2.60;99.90;;;;;;5072472;28;20043;-73
2021/12/22 06:08:40;;;;;;;24.25;12.70;;;-3.00;99.90;;;;;;5067681;28;20047;-73
2021/12/22 06:11:06;;;;;;;25.05;13.70;;;-3.20;99.90;;;;;;5084733;28;20040;-73
2021/12/22 06:13:31;;;;;;;25.13;13.25;;;-3.00;99.90;;;;;;5068564;28;20060;-73
2021/12/22 06:15:57;;;;;;;25.40;12.70;;;-3.00;99.90;;;;;;5071292;28;20415;-73
2021/12/22 06:18:22;;;;;;;29.00;13.32;;;-3.00;99.90;;;;;;5091283;28;20036;-73
2021/12/22 06:20:48;;;;;;;30.38;14.82;;;-3.00;99.90;;;;;;5072336;28;20055;-73
2021/12/22 06:23:14;;;;;;;26.35;14.15;;;-3.10;99.90;;;;;;5090420;28;20052;-73
2021/12/22 06:25:40;;;;;;;24.17;14.35;;;-3.10;99.90;;;;;;5072584;28;20117;-73
2021/12/22 06:28:06;;;;;;;27.10;14.68;;;-3.10;99.90;;;;;;5090208;28;20064;-73
2021/12/22 06:30:33;;;;;;;23.33;13.80;;;-3.10;99.90;;;;;;5091414;28;20036;-73
2021/12/22 06:32:58;;;;;;;25.10;13.52;;;-3.10;99.90;;;;;;5071510;28;20050;-73
2021/12/22 06:35:24;;;;;;;30.08;14.23;;;-3.20;99.90;;;;;;5090165;28;20036;-73
2021/12/22 06:37:51;;;;;;;29.85;14.05;;;-3.20;99.90;;;;;;5072585;28;20044;-74
2021/12/22 06:40:17;;;;;;;28.23;14.20;;;-3.10;99.90;;;;;;5072513;28;20068;-73
2021/12/22 06:42:43;;;;;;;29.23;13.63;;;-3.20;99.90;;;;;;5086753;28;20124;-76
2021/12/22 06:45:10;;;;;;;26.60;13.88;;;-3.20;99.90;;;;;;5088578;28;20134;-73
2021/12/22 06:47:36;;;;;;;29.60;13.98;;;-3.20;99.90;;;;;;5090580;28;20052;-73
2021/12/22 06:50:04;;;;;;;36.33;15.93;;;-3.20;99.90;;;;;;5090231;28;20044;-74
2021/12/22 06:52:30;;;;;;;30.85;13.85;;;-3.20;99.90;;;;;;5089143;28;20060;-73
2021/12/22 06:54:55;;;;;;;27.05;13.98;;;-3.20;99.90;;;;;;5088977;28;20054;-73
2021/12/22 06:57:22;;;;;;;25.42;13.82;;;-3.20;99.90;;;;;;5090055;28;20036;-73
2021/12/22 06:59:48;;;;;;;29.85;14.73;;;-3.20;99.90;;;;;;5089220;28;20105;-74
2021/12/22 07:02:14;;;;;;;32.08;15.32;;;-3.20;99.90;;;;;;5071368;28;20044;-73
2021/12/22 07:04:40;;;;;;;25.33;13.32;;;-3.20;99.90;;;;;;5072056;28;20483;-74
2021/12/22 07:07:06;;;;;;;30.17;14.10;;;-3.20;99.90;;;;;;5089087;28;20105;-74
2021/12/22 07:09:31;;;;;;;27.25;13.30;;;-3.20;99.90;;;;;;5089993;28;20123;-74
2021/12/22 07:11:57;;;;;;;25.50;13.05;;;-3.20;99.90;;;;;;5068182;28;20050;-74
2021/12/22 07:14:23;;;;;;;29.08;14.18;;;-3.20;99.90;;;;;;5089590;28;20047;-74
2021/12/22 07:16:48;;;;;;;23.80;12.75;;;-3.20;99.90;;;;;;5065059;28;20040;-74
2021/12/22 07:19:14;;;;;;;26.65;13.60;;;-3.10;99.90;;;;;;5083885;28;20537;-73
2021/12/22 07:21:40;;;;;;;26.13;12.45;;;-3.20;99.90;;;;;;5089527;28;20086;-74
2021/12/22 07:24:06;;;;;;;26.45;13.07;;;-3.20;99.90;;;;;;5071906;28;20071;-76
2021/12/22 07:26:32;;;;;;;33.40;12.95;;;-3.10;99.90;;;;;;5087860;28;20056;-74
2021/12/22 07:28:58;;;;;;;28.95;13.27;;;-3.10;99.90;;;;;;5064360;28;20046;-74
2021/12/22 07:31:24;;;;;;;25.48;13.68;;;-3.10;99.90;;;;;;5088040;28;20032;-76
2021/12/22 07:33:59;;;;;;;30.30;14.93;;;-3.20;99.90;;;;;;5088273;28;20429;-73
2021/12/22 07:36:25;;;;;;;25.85;13.77;;;-3.10;99.90;;;;;;5070654;28;20127;-74
2021/12/22 07:39:02;;;;;;;23.75;12.77;;;-3.10;99.90;;;;;;5089412;28;20126;-74
2021/12/22 07:41:30;;;;;;;26.67;13.48;;;-3.10;99.90;;;;;;5090890;28;20123;-74
2021/12/22 07:43:56;;;;;;;26.02;13.55;;;-3.10;99.90;;;;;;5089125;28;20047;-73
2021/12/22 07:46:21;;;;;;;23.05;11.93;;;-3.10;99.90;;;;;;5088518;28;20036;-74
2021/12/22 07:48:47;;;;;;;28.83;14.00;;;-3.00;99.90;;;;;;5088792;28;20074;-74
2021/12/22 07:51:12;;;;;;;26.98;13.90;;;-3.00;99.90;;;;;;5071672;28;20052;-74
2021/12/22 07:53:38;;;;;;;28.75;13.80;;;-3.00;99.90;;;;;;5071086;28;20087;-73
2021/12/22 07:56:04;;;;;;;28.38;13.32;;;-2.40;99.90;;;;;;5088482;28;20479;-74
2021/12/22 07:58:29;;;;;;;23.77;13.30;;;-3.10;99.90;;;;;;5096784;28;20040;-73
2021/12/22 08:00:56;;;;;;;23.85;13.43;;;-3.10;99.90;;;;;;5086086;28;20047;-73
2021/12/22 08:03:22;;;;;;;26.15;13.57;;;-3.00;99.90;;;;;;5072234;28;20061;-74
2021/12/22 08:05:48;;;;;;;27.10;13.50;;;-3.00;99.90;;;;;;5087635;28;20074;-74
2021/12/22 08:08:14;;;;;;;29.00;14.35;;;-3.00;99.90;;;;;;5089056;28;20048;-74
2021/12/22 08:10:41;;;;;;;25.42;13.65;;;-1.80;99.90;;;;;;5089705;28;20044;-75
2021/12/22 08:13:07;;;;;;;31.83;15.15;;;-3.00;99.90;;;;;;5064599;28;20387;-74
2021/12/22 08:15:32;;;;;;;28.25;15.20;;;-3.00;99.90;;;;;;5071607;28;20044;-74
2021/12/22 08:17:58;;;;;;;26.73;13.55;;;-3.00;99.90;;;;;;5088390;28;20451;-74
2021/12/22 08:20:24;;;;;;;31.88;14.45;;;-3.00;99.90;;;;;;5082582;28;20060;-74
2021/12/22 08:22:50;;;;;;;31.23;14.18;;;-3.00;99.90;;;;;;5089055;28;20032;-74
2021/12/22 08:25:16;;;;;;;27.95;14.07;;;-3.00;99.90;;;;;;5088831;28;20168;-74
2021/12/22 08:27:41;;;;;;;32.30;13.65;;;-2.90;99.90;;;;;;5070795;28;20127;-75
2021/12/22 08:30:08;;;;;;;28.98;13.88;;;-2.90;99.90;;;;;;5090344;28;20475;-75
2021/12/22 08:32:34;;;;;;;25.88;13.85;;;-2.90;99.90;;;;;;5088523;28;20093;-75
2021/12/22 08:35:03;;;;;;;25.70;13.05;;;-2.90;99.90;;;;;;5069556;28;20047;-75
2021/12/22 08:40:17;;;;;;;30.17;14.70;;;-2.80;99.90;;;;;;5063513;28;20078;-78
2021/12/22 08:42:45;;;;;;;30.52;14.70;;;-2.80;99.90;;;;;;5069419;28;20048;-78
2021/12/22 08:45:11;;;;;;;31.80;15.68;;;-2.70;99.90;;;;;;5088470;28;20040;-79
2021/12/22 08:47:37;;;;;;;29.10;14.30;;;-2.70;99.90;;;;;;5070589;28;20039;-79
2021/12/22 08:50:05;;;;;;;31.73;15.13;;;-2.60;99.90;;;;;;5070718;28;20093;-79
2021/12/22 08:52:31;;;;;;;26.80;13.32;;;-2.60;99.90;;;;;;5089979;28;20060;-79
2021/12/22 08:54:56;;;;;;;31.23;14.90;;;-2.60;99.90;;;;;;5088174;28;20052;-79
2021/12/22 08:57:22;;;;;;;33.75;15.32;;;-2.50;99.90;;;;;;5089056;28;20052;-78
2021/12/22 08:59:47;;;;;;;27.67;14.32;;;-2.50;99.90;;;;;;5089308;28;20063;-79
2021/12/22 09:02:13;;;;;;;28.73;15.40;;;-2.50;99.90;;;;;;5089733;28;20097;-79
2021/12/22 09:04:38;;;;;;;31.35;14.27;;;-2.40;99.90;;;;;;5088958;28;20036;-75
2021/12/22 09:07:05;;;;;;;27.83;13.60;;;-2.40;99.90;;;;;;5088386;28;20047;-75
2021/12/22 09:09:31;;;;;;;28.17;14.70;;;-2.40;99.90;;;;;;5089698;28;20134;-75
2021/12/22 09:11:56;;;;;;;31.88;14.63;;;-2.30;99.90;;;;;;5057221;28;20857;-73
2021/12/22 09:14:22;;;;;;;27.48;14.88;;;-2.30;99.90;;;;;;5085457;28;20411;-74
2021/12/22 09:16:48;;;;;;;30.77;13.98;;;-2.30;99.90;;;;;;5087591;28;20131;-74
2021/12/22 09:19:14;;;;;;;25.58;14.20;;;-2.30;99.90;;;;;;5087548;28;20044;-74
2021/12/22 09:21:40;;;;;;;30.40;14.50;;;-2.30;99.90;;;;;;5089284;28;20060;-74
2021/12/22 09:24:06;;;;;;;29.92;14.18;;;-2.30;99.90;;;;;;5087732;28;20060;-74
2021/12/22 09:26:32;;;;;;;26.83;13.65;;;-2.20;99.90;;;;;;5085364;28;20380;-74
2021/12/22 09:28:58;;;;;;;27.92;14.88;;;-2.20;99.90;;;;;;5087291;28;20036;-74
2021/12/22 09:31:24;;;;;;;30.75;14.50;;;-2.20;99.90;;;;;;5092093;28;20063;-74
2021/12/22 09:33:51;;;;;;;32.47;14.45;;;-2.10;99.90;;;;;;5092253;28;20080;-74
2021/12/22 09:36:16;;;;;;;26.13;13.20;;;-2.10;99.90;;;;;;5068235;28;20032;-75
2021/12/22 09:38:42;;;;;;;31.10;13.88;;;-2.10;99.90;;;;;;5069917;28;21188;-74
2021/12/22 09:41:09;;;;;;;23.98;13.48;;;-2.00;99.90;;;;;;5074520;28;20093;-74
2021/12/22 09:43:36;;;;;;;26.30;13.80;;;-2.00;99.90;;;;;;5073366;28;20127;-74
2021/12/22 09:46:07;;;;;;;26.77;13.50;;;-1.90;99.90;;;;;;5090389;28;20494;-73
2021/12/22 09:53:32;;;;;;;32.70;13.25;;;-1.80;99.90;;;;;;5075226;28;20052;-75
2021/12/22 09:55:59;;;;;;;32.22;13.80;;;-1.80;99.90;;;;;;5074974;28;20051;-75
2021/12/22 09:58:25;;;;;;;25.90;13.40;;;-1.70;99.90;;;;;;5092603;28;20119;-75
2021/12/22 10:00:52;;;;;;;28.10;13.82;;;-1.70;99.90;;;;;;5074597;28;20040;-76
2021/12/22 10:03:20;;;;;;;30.85;14.73;;;-1.60;99.90;;;;;;5073906;28;20039;-76
2021/12/22 10:05:46;;;;;;;22.35;11.75;;;-1.60;99.90;;;;;;5073837;28;20119;-75
2021/12/22 10:08:20;;;;;;;29.52;12.90;;;-1.50;99.90;;;;;;5092597;28;20054;-76
2021/12/22 10:10:47;;;;;;;;;;;-1.50;99.90;;;;;;5094165;28;20486;-76
2021/12/22 10:13:21;;;;;;;28.73;13.85;;;-1.50;99.90;;;;;;5090553;28;19927;-76
2021/12/22 10:15:48;;;;;;;23.30;12.47;;;-1.40;99.90;;;;;;5074043;28;20062;-76
2021/12/22 10:18:19;;;;;;;26.63;13.85;;;-1.40;99.90;;;;;;5092052;28;20047;-76
2021/12/22 10:20:47;;;;;;;25.85;12.68;;;-1.30;99.90;;;;;;5092078;28;20051;-76
2021/12/22 10:23:25;;;;;;;26.95;13.27;;;-1.30;99.90;;;;;;5075177;28;20132;-76
2021/12/22 10:26:00;;;;;;;26.65;13.55;;;-1.30;99.90;;;;;;5073610;28;20067;-76
2021/12/22 10:28:28;;;;;;;26.35;13.43;;;-1.20;99.90;;;;;;5090665;28;20040;-75
2021/12/22 10:30:56;;;;;;;23.88;14.25;;;-1.20;99.90;;;;;;5073454;28;20052;-75
2021/12/22 10:33:27;;;;;;;29.00;12.65;;;-1.10;99.90;;;;;;5091913;28;20040;-76
2021/12/22 10:36:00;;;;;;;25.77;13.77;;;-1.10;99.90;;;;;;5073154;28;20059;-74
2021/12/22 10:38:28;;;;;;;22.75;12.05;;;-1.10;99.90;;;;;;5071035;28;20135;-75
2021/12/22 10:40:57;;;;;;;22.30;11.43;;;-1.10;99.90;;;;;;5073399;28;20485;-75
2021/12/22 10:43:25;;;;;;;24.55;13.27;;;-1.00;99.90;;;;;;5074116;28;20055;-75
2021/12/22 10:45:55;;;;;;;22.77;12.60;;;-0.90;99.90;;;;;;5074696;28;20514;-75
2021/12/22 10:51:23;;;;;;;24.80;13.35;;;-0.90;99.90;;;;;;5070702;28;20095;-78
2021/12/22 10:53:50;;;;;;;28.25;12.77;;;-0.80;99.90;;;;;;5073235;28;20040;-76
2021/12/22 10:56:45;;;;;;;24.80;13.50;;;-0.70;99.90;;;;;;5090533;28;20052;-75
2021/12/22 10:59:17;;;;;;;21.63;12.65;;;-0.70;99.90;;;;;;5073938;28;20060;-77
2021/12/22 11:01:53;;;;;;;21.88;11.65;;;-0.70;99.90;;;;;;5073473;28;20162;-77
2021/12/22 11:04:24;;;;;;;24.25;12.77;;;-0.50;99.90;;;;;;5073100;28;20803;-78
2021/12/22 11:06:52;;;;;;;26.55;12.52;;;-0.60;99.90;;;;;;5073581;28;20121;-78
2021/12/22 11:09:18;;;;;;;26.48;13.07;;;-0.60;99.90;;;;;;5071464;28;20094;-78
2021/12/22 11:11:56;;;;;;;21.83;12.07;;;-0.60;99.90;;;;;;5068744;28;20040;-78
2021/12/22 11:14:27;;;;;;;25.13;12.50;;;-0.60;99.90;;;;;;5091197;28;20072;-78
2021/12/22 11:17:01;;;;;;;27.00;13.30;;;-0.50;99.90;;;;;;5072388;28;20098;-78
2021/12/22 11:19:31;;;;;;;20.42;11.90;;;-0.50;99.90;;;;;;5089267;28;20047;-78
2021/12/22 11:22:26;;;;;;;22.00;12.07;;;-0.50;99.90;;;;;;5087307;28;20431;-78
2021/12/22 11:24:48;;;;;;;22.38;12.50;;;-0.50;99.90;;;;;;5089138;28;20377;-78
2021/12/22 11:27:23;;;;;;;24.33;12.23;;;-0.40;99.90;;;;;;5090954;28;20048;-78
2021/12/22 11:29:54;;;;;;;23.92;12.98;;;-0.40;99.90;;;;;;5090515;28;20436;-78
2021/12/22 11:32:29;;;;;;;22.58;11.75;;;-0.40;99.90;;;;;;5072678;28;20399;-78
2021/12/22 11:35:02;;;;;;;21.83;11.70;;;-0.30;99.90;;;;;;5073218;28;20074;-78
2021/12/22 11:37:29;;;;;;;20.33;11.18;;;-0.30;99.90;;;;;;5072421;28;20096;-78
2021/12/22 11:39:57;;;;;;;18.33;8.82;;;-0.20;99.90;;;;;;5072485;28;20055;-78
2021/12/22 11:42:27;;;;;;;20.40;10.25;;;-0.20;99.90;;;;;;5090508;28;20066;-78
2021/12/22 11:44:58;;;;;;;20.48;11.07;;;-0.10;99.90;;;;;;5089622;28;20043;-78
2021/12/22 11:47:25;;;;;;;20.42;11.63;;;-0.10;99.90;;;;;;5073607;28;20048;-78
2021/12/22 11:50:03;;;;;;;22.33;12.35;;;0.00;99.90;;;;;;5072563;28;20506;-74
2021/12/22 11:52:38;;;;;;;18.02;10.73;;;0.10;99.90;;;;;;5089661;28;20044;-77
2021/12/22 11:55:07;;;;;;;19.70;10.90;;;0.20;99.90;;;;;;5089642;28;20044;-77
2021/12/22 11:57:32;;;;;;;21.90;11.05;;;0.20;99.90;;;;;;5071794;28;20048;-77
2021/12/22 12:00:34;;;;;;;20.25;11.05;;;0.30;99.90;;;;;;5087657;28;20065;-77
2021/12/22 12:03:21;;;;;;;19.30;10.95;;;0.30;99.90;;;;;;5089644;28;20043;-74
2021/12/22 12:06:21;;;;;;;16.83;9.75;;;0.30;99.90;;;;;;5088105;28;20040;-75
2021/12/22 12:09:10;;;;;;;20.90;10.98;;;0.30;99.90;;;;;;5057421;28;20051;-80
2021/12/22 12:11:56;;;;;;;21.50;11.95;;;0.30;99.90;;;;;;5060581;28;20368;-76
2021/12/22 12:14:36;;;;;;;19.95;10.95;;;0.30;99.90;;;;;;5069862;28;20052;-75
2021/12/22 12:23:30;;;;;;;21.60;11.55;;;0.20;99.90;;;;;;5018212;28;20176;-76
2021/12/22 12:25:57;;;;;;;16.87;9.77;;;0.20;99.90;;;;;;5071255;28;20052;-75
2021/12/22 12:28:24;;;;;;;22.63;11.70;;;0.20;99.90;;;;;;5088369;28;20044;-75
2021/12/22 12:30:52;;;;;;;21.95;11.35;;;0.10;99.90;;;;;;5089126;28;20058;-75
2021/12/22 12:33:27;;;;;;;22.70;11.52;;;0.10;99.90;;;;;;5070596;28;20036;-75
2021/12/22 12:36:05;;;;;;;20.15;11.68;;;0.10;99.90;;;;;;5071363;28;20044;-76
2021/12/22 12:38:40;;;;;;;23.60;11.40;;;0.10;99.90;;;;;;5088879;28;20040;-75
2021/12/22 12:41:11;;;;;;;22.48;11.48;;;0.10;99.90;;;;;;5089126;28;20044;-78
2021/12/22 12:43:43;;;;;;;19.58;10.77;;;0.10;99.90;;;;;;5070001;28;20036;-79
2021/12/22 12:48:50;;;;;;;20.25;11.75;;;0.10;99.90;;;;;;5071065;28;20055;-79
2021/12/22 12:51:17;;;;;;;19.80;10.38;;;0.10;99.90;;;;;;5070615;28;20388;-79
2021/12/22 12:53:46;;;;;;;18.77;10.55;;;0.10;99.90;;;;;;5085137;28;20048;-76
2021/12/22 12:56:14;;;;;;;24.63;11.23;;;0.10;99.90;;;;;;5087253;28;20036;-78
2021/12/22 12:59:00;;;;;;;21.75;11.45;;;0.10;99.90;;;;;;5089404;28;20046;-78
2021/12/22 13:01:49;;;;;;;19.58;10.88;;;0.10;99.90;;;;;;5070084;28;20483;-76
2021/12/22 13:04:23;;;;;;;22.58;10.77;;;0.10;99.90;;;;;;5092701;28;20402;-77
2021/12/22 13:06:50;;;;;;;20.60;11.32;;;0.10;99.90;;;;;;5075614;28;20054;-76